Ernesto Cortissoz International Airport

Airport
ICAO code: 
SKBQ
IATA Code: 
BAQ
Summary
ICAO Region: 
CARSAM
Territory: 
Location: 
Soledad, Atlantico Department
Serving: 
Barranquilla
Elevation: 
98 ft
Coordinates: 
Aerial View: 
10° 53' 11.766" N, 74° 46' 35.13" W
Metar
Observation
SKBQ 292100Z 02009KT 350V050 9999 VCSH FEW0015 30/25 Q1006 NOSIG RMK VCSH/SW A2973
Station
Barranquilla / Ernestocortissoz
Date/Time
2021-11-29 21:00:00
Wind direction
20°
Wind speed
09 kts
Lowest cloud amount
few clouds
Temperature
30°C
Dew point
25°C
Humidity
74%
QNH
1006 hPa
Weather condition
in vicinity: showers

Ernesto Cortissoz International Airport is an airport serving the area of Barranquilla, the capital city of the Atlántico department in Colombia.

Climatology

Tropical Savanna climate (Köppen climate classification Aw)

Runways

Designator Length Width Surface Rops
5/23 3000 45 CON Yes/Yes
Airport map: 
Aerial View: 

SKYbrary Partners:

Safety knowledge contributed by: